createdAt,value
2022-09-12T00:00:51.390Z,25.70
2022-09-12T00:05:53.359Z,25.80
2022-09-12T00:10:55.392Z,26.40
2022-09-12T00:15:57.279Z,25.70
2022-09-12T00:21:02.433Z,25.90
2022-09-12T00:26:08.274Z,25.90
2022-09-12T00:31:12.466Z,26.00
2022-09-12T00:36:15.770Z,26.60
2022-09-12T00:41:28.326Z,26.60
2022-09-12T00:46:36.317Z,26.60
2022-09-12T00:51:38.769Z,26.10
2022-09-12T00:56:42.494Z,26.00
2022-09-12T01:01:45.350Z,26.10
2022-09-12T01:06:48.644Z,26.20
2022-09-12T01:11:51.502Z,26.10
2022-09-12T01:16:53.476Z,26.10
2022-09-12T01:22:14.010Z,26.20
2022-09-12T01:27:18.981Z,26.20
2022-09-12T01:32:26.669Z,26.20
2022-09-12T01:37:39.322Z,26.80
2022-09-12T01:43:07.619Z,26.30
2022-09-12T01:48:31.123Z,26.30
2022-09-12T01:53:44.322Z,26.30
2022-09-12T01:58:51.941Z,26.30
2022-09-12T02:03:57.956Z,26.30
2022-09-12T02:09:06.482Z,26.90
2022-09-12T02:14:13.987Z,27.00
2022-09-12T02:19:17.423Z,26.40
2022-09-12T02:24:21.020Z,26.50
2022-09-12T02:29:23.206Z,27.10
2022-09-12T02:34:34.189Z,27.00
2022-09-12T02:39:36.472Z,26.50
2022-09-12T02:44:38.485Z,26.60
2022-09-12T02:49:40.404Z,27.10
2022-09-12T02:54:42.759Z,26.60
2022-09-12T02:59:45.575Z,26.60
2022-09-12T03:05:01.059Z,27.20
2022-09-12T03:10:06.063Z,26.60
2022-09-12T03:15:08.010Z,26.60
2022-09-12T03:20:11.744Z,26.70
2022-09-12T03:25:32.474Z,27.30
2022-09-12T03:30:41.605Z,26.80
2022-09-12T03:35:43.759Z,27.40
2022-09-12T03:40:47.794Z,27.50
2022-09-12T03:45:54.064Z,26.90
2022-09-12T03:50:59.425Z,26.90
2022-09-12T03:56:08.473Z,26.90
2022-09-12T04:01:12.694Z,26.80
2022-09-12T04:06:16.029Z,26.80
2022-09-12T04:11:18.591Z,26.80
2022-09-12T04:16:20.697Z,27.10
2022-09-12T04:21:22.781Z,26.80
2022-09-12T04:26:24.735Z,26.90
2022-09-12T04:31:26.865Z,26.90
2022-09-12T04:36:29.457Z,26.90
2022-09-12T04:41:36.277Z,27.00
2022-09-12T04:46:39.572Z,27.00
2022-09-12T04:51:42.280Z,27.00
2022-09-12T04:56:45.406Z,26.90
2022-09-12T05:01:47.483Z,26.90
2022-09-12T05:06:49.697Z,27.50
2022-09-12T05:12:06.914Z,27.50
2022-09-12T05:17:08.987Z,27.60
2022-09-12T05:22:10.922Z,26.90
2022-09-12T05:27:12.926Z,26.90
2022-09-12T05:32:14.892Z,27.10
2022-09-12T05:37:17.156Z,27.10
2022-09-12T05:42:19.134Z,27.30
2022-09-12T05:47:21.131Z,27.40
2022-09-12T05:52:23.062Z,27.50
2022-09-12T05:57:25.225Z,27.70
2022-09-12T06:02:27.193Z,27.90
2022-09-12T06:07:29.547Z,28.50
2022-09-12T06:12:31.460Z,28.70
2022-09-12T06:17:33.466Z,28.40
2022-09-12T06:22:35.430Z,28.60
2022-09-12T06:27:37.387Z,28.60
2022-09-12T06:32:39.288Z,29.30
2022-09-12T06:37:43.811Z,29.30
2022-09-12T06:42:45.761Z,29.50
2022-09-12T06:47:55.565Z,29.60
2022-09-12T06:52:57.510Z,29.80
2022-09-12T06:57:59.726Z,30.00
2022-09-12T07:03:01.686Z,30.00
2022-09-12T07:08:03.676Z,30.10
2022-09-12T07:13:05.608Z,31.00
2022-09-12T07:18:10.288Z,30.70
2022-09-12T07:23:12.264Z,30.60
2022-09-12T07:28:14.731Z,31.40
2022-09-12T07:33:16.710Z,30.50
2022-09-12T07:38:18.613Z,30.30
2022-09-12T07:43:20.532Z,31.20
2022-09-12T07:48:22.996Z,30.10
2022-09-12T07:53:25.109Z,30.00
2022-09-12T07:58:27.151Z,29.90
2022-09-12T08:03:29.441Z,29.70
2022-09-12T08:08:31.386Z,29.70
2022-09-12T08:13:34.429Z,29.50
2022-09-12T08:18:36.477Z,29.40
2022-09-12T08:23:38.439Z,29.10
2022-09-12T08:28:45.534Z,28.50
2022-09-12T08:33:48.101Z,29.10
2022-09-12T08:38:58.603Z,28.30
2022-09-12T08:44:07.877Z,28.90
2022-09-12T08:49:12.491Z,28.90
2022-09-12T08:54:26.774Z,27.70
2022-09-12T08:59:35.509Z,26.80
2022-09-12T09:05:00.413Z,26.30
2022-09-12T09:10:14.167Z,26.40
2022-09-12T09:15:21.904Z,26.10
2022-09-12T09:20:31.257Z,25.60
2022-09-12T09:25:48.798Z,26.10
2022-09-12T09:30:50.865Z,25.10
2022-09-12T09:36:02.369Z,24.50
2022-09-12T09:41:22.968Z,23.90
2022-09-12T09:46:25.319Z,24.00
2022-09-12T09:51:33.445Z,23.90
2022-09-12T09:56:36.479Z,23.40
2022-09-12T10:01:49.362Z,23.00
2022-09-12T10:06:52.583Z,22.60
2022-09-12T10:11:55.595Z,23.20
2022-09-12T10:16:58.646Z,22.00
2022-09-12T10:22:01.030Z,21.70
2022-09-12T10:27:12.167Z,21.70
2022-09-12T10:32:21.200Z,21.80
2022-09-12T10:37:25.787Z,21.50
2022-09-12T10:42:47.737Z,20.40
2022-09-12T10:47:50.025Z,20.30
2022-09-12T10:52:52.694Z,19.90
2022-09-12T10:57:54.656Z,19.60
2022-09-12T11:03:06.341Z,20.20
2022-09-12T11:08:08.544Z,18.80
2022-09-12T11:13:22.637Z,18.00
2022-09-12T11:18:27.385Z,18.00
2022-09-12T11:23:51.560Z,16.90
2022-09-12T11:29:00.866Z,16.60
2022-09-12T11:34:05.711Z,15.30
2022-09-12T11:39:22.787Z,15.40
2022-09-12T11:44:28.576Z,14.00
2022-09-12T11:49:36.701Z,13.90
2022-09-12T11:54:38.749Z,14.10
2022-09-12T11:59:52.644Z,13.50
2022-09-12T12:05:14.181Z,12.60
2022-09-12T12:10:34.695Z,12.60
2022-09-12T12:15:37.862Z,12.00
2022-09-12T12:20:39.871Z,12.00
2022-09-12T12:25:51.686Z,12.30
2022-09-12T12:30:53.749Z,10.70
2022-09-12T12:36:02.308Z,9.40
2022-09-12T12:41:16.453Z,9.00
2022-09-12T12:46:26.002Z,9.50
2022-09-12T12:51:27.960Z,9.10
2022-09-12T12:56:40.040Z,8.40
2022-09-12T13:01:55.355Z,7.40
2022-09-12T13:07:20.283Z,6.80
2022-09-12T13:12:27.431Z,6.10
2022-09-12T13:17:29.314Z,5.70
2022-09-12T13:22:39.559Z,6.40
2022-09-12T13:27:55.960Z,5.20
2022-09-12T13:32:59.075Z,3.90
2022-09-12T13:38:20.064Z,3.60
2022-09-12T13:43:27.023Z,3.20
2022-09-12T13:48:29.200Z,2.50
2022-09-12T13:53:34.700Z,2.10
2022-09-12T13:58:36.681Z,1.00
2022-09-12T14:03:59.232Z,1.00
2022-09-12T14:09:02.428Z,1.00
2022-09-12T14:14:06.358Z,1.00
2022-09-12T14:19:09.071Z,1.00
2022-09-12T14:24:13.861Z,1.00
2022-09-12T14:34:19.344Z,1.00
2022-09-12T14:39:38.066Z,1.00
2022-09-12T14:44:40.783Z,1.00
2022-09-12T14:49:43.364Z,1.00
2022-09-12T14:54:55.154Z,1.00
2022-09-12T15:00:14.786Z,1.00
2022-09-12T15:05:26.970Z,1.00
2022-09-12T15:10:34.665Z,1.00
2022-09-12T15:15:37.350Z,1.00
2022-09-12T15:20:40.657Z,1.00
2022-09-12T15:25:42.643Z,1.00
2022-09-12T15:30:44.957Z,1.00
2022-09-12T15:35:47.035Z,1.00
2022-09-12T15:40:55.980Z,1.00
2022-09-12T15:45:59.173Z,1.00
2022-09-12T15:51:01.696Z,1.00
2022-09-12T15:56:04.165Z,1.00
2022-09-12T16:01:06.270Z,1.00
2022-09-12T16:06:11.204Z,1.00
2022-09-12T16:11:18.594Z,1.00
2022-09-12T16:16:20.659Z,1.00
2022-09-12T16:21:22.842Z,1.00
2022-09-12T16:26:24.774Z,1.00
2022-09-12T16:31:27.259Z,1.00
2022-09-12T16:36:29.355Z,1.00
2022-09-12T16:41:31.403Z,1.00
2022-09-12T16:46:33.893Z,1.00
2022-09-12T16:51:35.953Z,1.00
2022-09-12T16:56:38.518Z,1.00
2022-09-12T17:01:40.929Z,1.00
2022-09-12T17:06:42.973Z,1.00
2022-09-12T17:11:47.485Z,1.00
2022-09-12T17:16:52.084Z,1.70
2022-09-12T17:21:54.904Z,1.90
2022-09-12T17:26:57.201Z,3.00
2022-09-12T17:31:59.570Z,3.70
2022-09-12T17:37:01.618Z,4.50
2022-09-12T17:42:03.663Z,5.50
2022-09-12T17:47:05.804Z,6.00
2022-09-12T17:52:08.139Z,6.40
2022-09-12T17:57:10.082Z,7.20
2022-09-12T18:02:12.828Z,7.70
2022-09-12T18:07:15.860Z,8.10
2022-09-12T18:12:19.830Z,8.50
2022-09-12T18:17:21.832Z,9.00
2022-09-12T18:22:23.796Z,9.70
2022-09-12T18:27:25.768Z,9.80
2022-09-12T18:32:27.731Z,10.60
2022-09-12T18:37:29.857Z,10.70
2022-09-12T18:42:32.479Z,11.10
2022-09-12T18:47:34.443Z,11.60
2022-09-12T18:52:36.355Z,12.10
2022-09-12T18:57:40.483Z,12.60
2022-09-12T19:02:42.544Z,12.90
2022-09-12T19:07:44.541Z,13.00
2022-09-12T19:12:46.461Z,13.70
2022-09-12T19:17:48.401Z,14.00
2022-09-12T19:22:50.325Z,14.20
2022-09-12T19:27:52.250Z,14.60
2022-09-12T19:32:54.269Z,15.10
2022-09-12T19:37:56.311Z,15.40
2022-09-12T19:48:00.878Z,15.90
2022-09-12T19:53:03.565Z,16.10
2022-09-12T19:58:06.087Z,16.50
2022-09-12T20:03:08.685Z,16.80
2022-09-12T20:08:10.720Z,17.00
2022-09-12T20:13:12.738Z,17.40
2022-09-12T20:18:14.747Z,17.70
2022-09-12T20:23:16.708Z,18.00
2022-09-12T20:28:18.717Z,18.10
2022-09-12T20:33:20.682Z,18.50
2022-09-12T20:38:22.663Z,18.60
2022-09-12T20:43:24.608Z,18.90
2022-09-12T20:48:26.554Z,19.10
2022-09-12T20:53:32.955Z,19.20
2022-09-12T20:58:40.525Z,19.50
2022-09-12T21:03:45.513Z,19.80
2022-09-12T21:08:48.522Z,19.90
2022-09-12T21:13:51.500Z,20.00
2022-09-12T21:18:57.739Z,20.60
2022-09-12T21:24:02.539Z,21.00
2022-09-12T21:29:04.496Z,20.40
2022-09-12T21:34:06.635Z,20.50
2022-09-12T21:39:08.628Z,20.90
2022-09-12T21:44:10.573Z,21.00
2022-09-12T21:49:12.477Z,21.10
2022-09-12T21:54:14.688Z,21.30
2022-09-12T21:59:16.640Z,21.50
2022-09-12T22:04:18.571Z,21.60
2022-09-12T22:09:20.499Z,22.00
2022-09-12T22:14:22.436Z,22.10
2022-09-12T22:19:24.381Z,22.20
2022-09-12T22:24:29.231Z,22.50
2022-09-12T22:29:31.264Z,23.00
2022-09-12T22:34:33.221Z,22.50
2022-09-12T22:39:35.129Z,22.60
2022-09-12T22:44:37.107Z,22.80
2022-09-12T22:49:39.059Z,22.90
2022-09-12T22:54:41.165Z,22.30
2022-09-12T22:59:43.215Z,23.00
2022-09-12T23:04:46.598Z,23.10
2022-09-12T23:09:48.563Z,23.10
2022-09-12T23:14:50.520Z,23.20
2022-09-12T23:19:52.429Z,23.20
2022-09-12T23:24:54.349Z,23.40
2022-09-12T23:29:56.300Z,22.10
2022-09-12T23:34:58.947Z,23.60
2022-09-12T23:40:00.937Z,23.60
2022-09-12T23:45:03.070Z,23.80
2022-09-12T23:50:05.270Z,23.70
2022-09-12T23:55:07.443Z,23.80
